메인 페이지
METAR-TAF:

METAR-TAF

공항 :

Plainview, 텍사스, 미국

위도: 34-10-05N, 경도: 101-43-02W, 고도: 1028m

현재 날씨관측

예보는 42분 전, 12:55시(UTC)에 발표되었습니다.
동북동16kt, 순간 최대 풍속 21kt
온도 7°C
습도 100%
기압 1025 hPa
시정: 16.1km
고도 1700ft 상공 구름 많음
고도 2300ft 상공 흐림
약한비

METAR: KPVW 261255Z AUTO 07016G21KT 10SM -RA BKN017 OVC023 07/07 A3028 RMK AO2 P0003 T00720071

시각: 08:37 (13:37 UTC)

예보

예보는 2 시간 17분 전, 11:20시(UTC)에 발표되었습니다.
예보 대상 시간: 26일 12시부터 27일 12시까지 (UTC)
북동15kt
시정: 9.7km
고도 300ft 상공 구름 보통
고도 700ft 상공 흐림
약한비
26일 1900시부터 (UTC)
북동11kt
시정: 10km
고도 1500ft 상공 흐림
26일 2300시부터 (UTC)
6kt
시정: 10km
고도 4000ft 상공 구름 많음

TAF: KPVW 261120Z 2612/2712 05015KT 6SM -RA SCT003 OVC007 FM261900 05011KT P6SM OVC015 FM262300 09006KT P6SM BKN040

4,000개 이상의 공항 관측 자료 및 예보 (METAR 및 TAF 보고).

지도상에서 검색 가능한 기상관측소가 노란 점과 빨간 점으로 표시되어 있습니다.

기상관측소 명을 보려면 표시 위로 마우스를 이동하세요.

날씨 관측과 예보를 보려면 클릭하세요.

지도 변경 : 확대하려면 엑스 표시가 있는 녹색 버튼, 축소하려면 빼기 표시가 있는 녹색 버튼, 다음 페이지의 지도를 보려면 녹색 화살표를 클릭하세요.


METAR-TAF: